Time;durP1;ratioP1;P1;durP2;ratioP2;P2;SDS_P1;SDS_P2;PMS_P1;PMS_P2;Temp;Humidity;BMP_temperature;BMP_pressure;BME280_temperature;BME280_humidity;BME280_pressure;Samples;Min_cycle;Max_cycle;Signal;HPM_P1;HPM_P2
2024/04/09 00:02:13;;;;;;;5.20;2.13;;;18.60;99.90;;;;;;5309573;27;20442;-77
2024/04/09 00:04:39;;;;;;;4.35;1.95;;;18.60;99.90;;;;;;5309998;27;19997;-77
2024/04/09 00:07:05;;;;;;;7.35;2.15;;;18.60;99.90;;;;;;5299870;27;19990;-77
2024/04/09 00:09:30;;;;;;;5.38;2.40;;;18.60;99.90;;;;;;5285128;27;20414;-77
2024/04/09 00:11:58;;;;;;;3.45;1.92;;;18.60;99.90;;;;;;5300175;27;20009;-77
2024/04/09 00:14:24;;;;;;;5.35;2.28;;;18.70;99.90;;;;;;5309850;27;20024;-77
2024/04/09 00:16:53;;;;;;;6.20;2.38;;;18.60;99.90;;;;;;5334863;26;20071;-77
2024/04/09 00:19:23;;;;;;;7.70;2.05;;;18.60;99.90;;;;;;5344420;26;20012;-77
2024/04/09 00:21:52;;;;;;;5.22;2.17;;;18.60;99.90;;;;;;5268023;27;20070;-77
2024/04/09 00:24:18;;;;;;;4.72;1.90;;;18.60;99.90;;;;;;5274701;27;20462;-77
2024/04/09 00:26:44;;;;;;;5.10;1.92;;;18.60;99.90;;;;;;5275203;27;20439;-77
2024/04/09 00:29:10;;;;;;;3.03;1.90;;;18.70;99.90;;;;;;5214392;27;20391;-77
2024/04/09 00:31:36;;;;;;;4.65;2.17;;;18.70;99.90;;;;;;5208055;27;20011;-77
2024/04/09 00:34:03;;;;;;;5.15;2.17;;;18.70;99.90;;;;;;5208310;27;20499;-77
2024/04/09 00:36:29;;;;;;;4.50;2.25;;;18.70;99.90;;;;;;5208156;27;19999;-77
2024/04/09 00:38:56;;;;;;;7.18;2.25;;;18.70;99.90;;;;;;5297185;27;20013;-77
2024/04/09 00:41:22;;;;;;;5.25;2.20;;;18.70;99.90;;;;;;5308955;27;19990;-77
2024/04/09 00:43:47;;;;;;;4.97;2.47;;;18.70;99.90;;;;;;5309273;27;20029;-77
2024/04/09 00:46:15;;;;;;;8.90;2.50;;;18.70;99.90;;;;;;5308776;27;20005;-76
2024/04/09 00:48:44;;;;;;;4.05;2.08;;;18.60;99.90;;;;;;5310596;27;20067;-77
2024/04/09 00:51:13;;;;;;;5.30;1.98;;;18.70;99.90;;;;;;5312509;27;19993;-77
2024/04/09 00:53:43;;;;;;;6.07;2.00;;;18.70;99.90;;;;;;5340693;26;20408;-77
2024/04/09 00:56:08;;;;;;;4.22;2.00;;;18.70;99.90;;;;;;5347121;26;20473;-77
2024/04/09 00:58:35;;;;;;;3.95;2.22;;;18.70;99.90;;;;;;5347187;26;20043;-76
2024/04/09 01:01:00;;;;;;;5.15;1.95;;;18.70;99.90;;;;;;5318108;26;19990;-77
2024/04/09 01:03:27;;;;;;;5.20;2.30;;;18.70;99.90;;;;;;5278250;27;20002;-77
2024/04/09 01:05:52;;;;;;;6.63;2.10;;;18.60;99.90;;;;;;5278346;27;20017;-77
2024/04/09 01:08:19;;;;;;;4.30;1.90;;;18.60;99.90;;;;;;5278146;27;20452;-77
2024/04/09 01:10:45;;;;;;;7.93;2.25;;;18.60;99.90;;;;;;5278222;27;20008;-77
2024/04/09 01:13:10;;;;;;;5.10;1.92;;;18.60;99.90;;;;;;5334281;26;19997;-78
2024/04/09 01:15:36;;;;;;;5.05;2.03;;;18.60;99.90;;;;;;5312279;27;20118;-78
2024/04/09 01:18:03;;;;;;;4.72;2.35;;;18.70;99.90;;;;;;5312136;27;19994;-78
2024/04/09 01:20:28;;;;;;;4.97;2.10;;;18.60;99.90;;;;;;5311947;27;20051;-77
2024/04/09 01:22:54;;;;;;;3.72;2.30;;;18.50;99.90;;;;;;5278011;27;19990;-77
2024/04/09 01:25:20;;;;;;;6.00;2.00;;;18.50;99.90;;;;;;5278108;27;19998;-77
2024/04/09 01:27:46;;;;;;;3.45;2.30;;;18.50;99.90;;;;;;5277605;27;19994;-77
2024/04/09 01:30:12;;;;;;;7.03;2.20;;;18.50;99.90;;;;;;5277755;27;20027;-77
2024/04/09 01:32:40;;;;;;;5.95;2.30;;;18.40;99.90;;;;;;5278471;27;20001;-78
2024/04/09 01:35:06;;;;;;;4.55;2.20;;;18.40;99.90;;;;;;5303620;27;19997;-79
2024/04/09 01:37:38;;;;;;;3.33;1.92;;;18.40;99.90;;;;;;5312155;27;19997;-79
2024/04/09 01:40:04;;;;;;;4.65;1.98;;;18.30;99.90;;;;;;5277297;27;19998;-78
2024/04/09 01:42:30;;;;;;;3.70;2.00;;;18.30;99.90;;;;;;5277753;27;20448;-79
2024/04/09 01:44:55;;;;;;;4.47;2.20;;;18.20;99.90;;;;;;5277637;27;20034;-78
2024/04/09 01:47:21;;;;;;;5.43;2.65;;;18.20;99.90;;;;;;5304679;27;20335;-78
2024/04/09 01:49:47;;;;;;;5.78;2.78;;;18.10;99.90;;;;;;5312269;27;20063;-78
2024/04/09 01:52:13;;;;;;;9.23;2.60;;;17.90;99.90;;;;;;5311803;27;20006;-78
2024/04/09 01:54:46;;;;;;;10.18;3.13;;;17.80;99.90;;;;;;5311796;27;20541;-78
2024/04/09 01:57:11;;;;;;;6.82;3.17;;;17.60;99.90;;;;;;5312633;27;20009;-78
2024/04/09 01:59:38;;;;;;;7.65;4.07;;;17.40;99.90;;;;;;5282662;27;19995;-78
2024/04/09 02:02:04;;;;;;;7.07;3.80;;;17.30;1.00;;;;;;5277842;27;20009;-77
2024/04/09 02:04:30;;;;;;;7.22;4.50;;;17.20;1.00;;;;;;5243806;27;20359;-78
2024/04/09 02:06:55;;;;;;;10.80;4.35;;;17.10;2.20;;;;;;5244080;27;20498;-77
2024/04/09 02:09:22;;;;;;;7.53;4.68;;;17.00;60.50;;;;;;5277095;27;20444;-78
2024/04/09 02:11:48;;;;;;;10.13;4.78;;;17.00;99.90;;;;;;5358616;26;20016;-77
2024/04/09 02:14:14;;;;;;;8.55;4.40;;;16.90;99.90;;;;;;5409051;26;19999;-78
2024/04/09 02:16:40;;;;;;;10.20;4.35;;;16.90;99.90;;;;;;5416624;26;19995;-78
2024/04/09 02:19:06;;;;;;;7.45;3.80;;;16.80;99.90;;;;;;5416463;26;20003;-77
2024/04/09 02:21:32;;;;;;;7.78;4.15;;;16.80;99.90;;;;;;5416672;26;20419;-77
2024/04/09 02:24:01;;;;;;;7.40;3.70;;;16.80;99.90;;;;;;5416172;26;20493;-77
2024/04/09 02:26:28;;;;;;;9.85;4.25;;;16.70;99.90;;;;;;5345807;26;20021;-77
2024/04/09 02:28:57;;;;;;;6.78;4.40;;;16.70;99.90;;;;;;5346386;26;20029;-78
2024/04/09 02:31:23;;;;;;;8.40;5.47;;;16.70;99.90;;;;;;5345656;26;19997;-78
2024/04/09 02:33:50;;;;;;;11.48;7.03;;;16.60;99.90;;;;;;5345416;26;19997;-77
2024/04/09 02:36:15;;;;;;;11.15;7.00;;;16.50;1.00;;;;;;5373536;26;20343;-77
2024/04/09 02:38:43;;;;;;;11.05;7.10;;;16.50;1.00;;;;;;5276556;27;20018;-77
2024/04/09 02:41:13;;;;;;;9.90;6.50;;;16.40;88.00;;;;;;5243142;27;20025;-77
2024/04/09 02:43:38;;;;;;;9.40;6.65;;;16.30;99.90;;;;;;5276661;27;19991;-77
2024/04/09 02:46:04;;;;;;;12.05;8.02;;;16.20;99.90;;;;;;5276583;27;19999;-76
2024/04/09 02:48:30;;;;;;;14.32;7.70;;;16.10;1.00;;;;;;5276882;27;20064;-78
2024/04/09 02:50:57;;;;;;;11.13;6.90;;;15.90;99.90;;;;;;5277144;27;19999;-78
2024/04/09 02:53:23;;;;;;;9.73;6.50;;;15.90;99.90;;;;;;5242876;27;20047;-78
2024/04/09 02:56:07;;;;;;;12.68;7.60;;;15.80;99.90;;;;;;5242891;27;20006;-78
2024/04/09 02:58:35;;;;;;;11.63;7.70;;;15.80;99.90;;;;;;5306210;27;20398;-78
2024/04/09 03:01:11;;;;;;;12.45;6.85;;;15.70;1.00;;;;;;5311612;27;20060;-78
2024/04/09 03:03:38;;;;;;;11.82;7.03;;;15.60;1.00;;;;;;5276721;27;20026;-78
2024/04/09 03:06:11;;;;;;;10.80;6.90;;;15.50;1.00;;;;;;5276792;27;19994;-78
2024/04/09 03:08:40;;;;;;;10.82;7.07;;;15.50;8.60;;;;;;5279197;26;20005;-77
2024/04/09 03:11:17;;;;;;;12.45;7.38;;;15.50;73.60;;;;;;5343543;26;19993;-77
2024/04/09 03:13:45;;;;;;;12.02;7.50;;;15.40;99.90;;;;;;5273241;27;19994;-78
2024/04/09 03:16:15;;;;;;;11.80;7.68;;;15.40;99.90;;;;;;5242311;27;20005;-77
2024/04/09 03:18:41;;;;;;;14.65;8.13;;;15.30;99.90;;;;;;5242917;27;19998;-78
2024/04/09 03:21:06;;;;;;;13.80;8.32;;;15.30;99.90;;;;;;5242814;27;20009;-78
2024/04/09 03:23:32;;;;;;;15.30;8.48;;;15.30;99.90;;;;;;5276169;27;19998;-78
2024/04/09 03:25:57;;;;;;;13.75;8.68;;;15.20;99.90;;;;;;5242009;27;20065;-78
2024/04/09 03:28:23;;;;;;;13.77;8.30;;;15.20;99.90;;;;;;5242619;27;19995;-78
2024/04/09 03:30:58;;;;;;;11.32;8.57;;;15.10;99.90;;;;;;5274270;27;20004;-78
2024/04/09 03:33:24;;;;;;;13.70;8.20;;;14.90;1.00;;;;;;5241999;27;19995;-78
2024/04/09 03:35:56;;;;;;;15.15;8.70;;;14.90;1.00;;;;;;5242149;27;19995;-78
2024/04/09 03:38:22;;;;;;;14.00;9.23;;;14.80;1.00;;;;;;5242386;27;20052;-77
2024/04/09 03:40:54;;;;;;;11.50;8.52;;;14.70;60.70;;;;;;5242011;27;20005;-78
2024/04/09 03:43:20;;;;;;;12.80;8.65;;;14.70;84.90;;;;;;5242617;27;19999;-77
2024/04/09 03:46:06;;;;;;;13.98;8.82;;;14.60;99.90;;;;;;5241950;27;20077;-77
2024/04/09 03:48:32;;;;;;;14.95;9.00;;;14.60;99.90;;;;;;5176578;27;20361;-78
2024/04/09 03:50:58;;;;;;;12.68;8.90;;;14.50;99.90;;;;;;5176440;27;20000;-78
2024/04/09 03:53:24;;;;;;;12.77;9.05;;;14.50;99.90;;;;;;5209112;27;20411;-78
2024/04/09 03:55:56;;;;;;;16.83;10.00;;;14.40;99.90;;;;;;5275915;27;20161;-78
2024/04/09 03:58:23;;;;;;;17.17;9.00;;;14.30;99.90;;;;;;5309623;27;20417;-79
2024/04/09 04:01:02;;;;;;;15.52;9.40;;;14.30;99.90;;;;;;5241875;27;19999;-78
2024/04/09 04:03:30;;;;;;;15.35;9.57;;;14.30;99.90;;;;;;5275154;27;20006;-78
2024/04/09 04:05:57;;;;;;;17.20;9.35;;;14.30;99.90;;;;;;5275263;27;20509;-78
2024/04/09 04:08:25;;;;;;;17.08;10.13;;;14.20;1.00;;;;;;5276055;27;20414;-77
2024/04/09 04:10:57;;;;;;;16.40;10.13;;;14.30;1.00;;;;;;5275561;27;19995;-77
2024/04/09 04:13:27;;;;;;;17.67;9.73;;;14.30;1.00;;;;;;5275600;27;20426;-78
2024/04/09 04:16:09;;;;;;;17.77;10.75;;;14.20;1.00;;;;;;5275496;27;20035;-78
2024/04/09 04:18:39;;;;;;;15.13;9.70;;;14.20;1.00;;;;;;5275312;27;20002;-78
2024/04/09 04:21:07;;;;;;;14.23;9.20;;;14.30;99.90;;;;;;5309988;27;20113;-78
2024/04/09 04:23:33;;;;;;;16.88;9.63;;;14.30;99.90;;;;;;5307944;27;19997;-77
2024/04/09 04:26:03;;;;;;;15.60;9.63;;;14.30;99.90;;;;;;5278217;27;20000;-77
2024/04/09 04:28:33;;;;;;;17.25;9.38;;;14.20;99.90;;;;;;5278785;27;20022;-77
2024/04/09 04:30:59;;;;;;;15.75;9.05;;;14.20;99.90;;;;;;5283061;27;20462;-77
2024/04/09 04:33:26;;;;;;;13.02;9.27;;;14.20;99.90;;;;;;5312601;27;20005;-79
2024/04/09 04:35:52;;;;;;;15.57;9.85;;;14.30;99.90;;;;;;5312023;27;20389;-78
2024/04/09 04:38:18;;;;;;;15.05;9.32;;;14.30;99.90;;;;;;5313248;27;20016;-78
2024/04/09 04:40:46;;;;;;;14.25;9.40;;;14.30;99.90;;;;;;5338826;26;20100;-78
2024/04/09 04:43:16;;;;;;;15.20;9.85;;;14.30;99.90;;;;;;5312254;27;19993;-78
2024/04/09 04:45:43;;;;;;;16.05;9.45;;;14.40;99.90;;;;;;5312101;27;20030;-79
2024/04/09 04:48:09;;;;;;;19.15;9.23;;;14.50;99.90;;;;;;5312430;27;19994;-78
2024/04/09 04:50:35;;;;;;;18.38;8.95;;;14.50;99.90;;;;;;5313042;27;20037;-78
2024/04/09 04:53:01;;;;;;;17.83;9.25;;;14.70;99.90;;;;;;5278035;27;20447;-78
2024/04/09 04:55:27;;;;;;;13.77;8.05;;;14.80;26.90;;;;;;5279208;27;20005;-79
2024/04/09 04:57:53;;;;;;;15.43;8.48;;;14.90;1.00;;;;;;5366814;26;20055;-79
2024/04/09 05:00:18;;;;;;;15.38;7.70;;;14.90;1.00;;;;;;5381642;26;20080;-79
2024/04/09 05:02:44;;;;;;;13.88;7.90;;;15.10;1.00;;;;;;5346043;26;20007;-79
2024/04/09 05:05:10;;;;;;;13.73;8.57;;;15.10;1.00;;;;;;5346072;26;20009;-79
2024/04/09 05:07:36;;;;;;;12.15;8.18;;;15.20;99.90;;;;;;5346474;26;20008;-79
2024/04/09 05:10:04;;;;;;;13.50;8.07;;;15.40;99.90;;;;;;5311600;27;20004;-78
2024/04/09 05:12:29;;;;;;;15.30;7.45;;;15.30;99.90;;;;;;5244454;27;20009;-78
2024/04/09 05:14:55;;;;;;;12.32;7.72;;;15.30;99.90;;;;;;5218812;27;20004;-78
2024/04/09 05:17:21;;;;;;;15.80;7.93;;;15.50;99.90;;;;;;5210730;27;20427;-78
2024/04/09 05:19:49;;;;;;;11.73;7.38;;;15.80;99.90;;;;;;5211215;27;20011;-78
2024/04/09 05:22:17;;;;;;;15.48;6.68;;;15.90;99.90;;;;;;5211162;27;19996;-78
2024/04/09 05:24:44;;;;;;;12.15;7.50;;;15.90;99.90;;;;;;5236262;27;20018;-79
2024/04/09 05:27:10;;;;;;;12.35;7.00;;;15.80;99.90;;;;;;5244182;27;19999;-79
2024/04/09 05:29:35;;;;;;;12.82;7.68;;;15.80;99.90;;;;;;5244159;27;20009;-78
2024/04/09 05:32:01;;;;;;;13.88;7.07;;;16.00;99.90;;;;;;5244215;27;20006;-79
2024/04/09 05:34:27;;;;;;;12.02;7.28;;;16.30;75.70;;;;;;5295530;27;20009;-80
2024/04/09 05:36:53;;;;;;;14.20;6.90;;;16.60;36.60;;;;;;5311733;27;20076;-79
2024/04/09 05:39:19;;;;;;;13.57;8.00;;;16.60;1.00;;;;;;5311531;27;20005;-79
2024/04/09 05:41:45;;;;;;;10.45;6.85;;;16.80;1.00;;;;;;5285299;27;20381;-79
2024/04/09 05:44:11;;;;;;;12.40;6.88;;;16.60;1.00;;;;;;5277867;27;20026;-79
2024/04/09 05:46:39;;;;;;;9.00;6.72;;;16.50;1.00;;;;;;5312114;27;20445;-79
2024/04/09 05:49:05;;;;;;;11.93;7.30;;;16.90;1.00;;;;;;5293842;26;19998;-79
2024/04/09 05:51:30;;;;;;;16.65;6.85;;;17.10;1.00;;;;;;5346381;26;20467;-77
2024/04/09 05:53:57;;;;;;;10.73;6.38;;;17.70;99.90;;;;;;5427370;26;20006;-77
2024/04/09 05:56:22;;;;;;;8.20;6.13;;;18.20;99.90;;;;;;5416294;26;19991;-77
2024/04/09 05:58:48;;;;;;;12.20;5.60;;;18.10;99.90;;;;;;5416536;26;20006;-77
2024/04/09 06:01:14;;;;;;;13.35;6.03;;;17.90;62.00;;;;;;5345374;26;20141;-75
2024/04/09 06:03:40;;;;;;;13.40;6.28;;;18.00;28.00;;;;;;5345989;26;20012;-78
2024/04/09 06:06:05;;;;;;;10.35;6.28;;;18.50;1.00;;;;;;5345147;26;20096;-76
2024/04/09 06:08:31;;;;;;;13.68;6.20;;;18.10;1.00;;;;;;5345411;26;19993;-76
2024/04/09 06:10:57;;;;;;;12.95;6.25;;;18.50;99.90;;;;;;5311181;27;19990;-78
2024/04/09 06:13:23;;;;;;;9.75;5.57;;;18.90;1.00;;;;;;5311638;27;20322;-75
2024/04/09 06:15:48;;;;;;;8.68;5.32;;;19.10;1.00;;;;;;5310936;27;20044;-76
2024/04/09 06:18:14;;;;;;;8.30;5.05;;;19.20;99.90;;;;;;5286043;27;20046;-77
2024/04/09 06:20:40;;;;;;;12.40;5.35;;;20.20;99.90;;;;;;5276775;27;20009;-76
2024/04/09 06:23:05;;;;;;;16.75;5.65;;;19.80;92.60;;;;;;5276646;27;20485;-77
2024/04/09 06:25:31;;;;;;;10.05;5.00;;;20.40;1.00;;;;;;5243043;27;19999;-76
2024/04/09 06:27:56;;;;;;;11.20;5.18;;;20.30;1.00;;;;;;5243484;27;20078;-76
2024/04/09 06:30:22;;;;;;;8.30;4.57;;;20.00;1.00;;;;;;5243442;27;19995;-78
2024/04/09 06:32:47;;;;;;;11.23;5.50;;;20.70;1.00;;;;;;5243295;27;19995;-77
2024/04/09 06:35:13;;;;;;;9.65;5.05;;;21.40;1.00;;;;;;5243227;27;20346;-77
2024/04/09 06:37:38;;;;;;;9.52;4.82;;;21.40;99.90;;;;;;5246775;27;20550;-77
2024/04/09 06:40:05;;;;;;;10.63;4.10;;;21.00;99.90;;;;;;5310924;27;19993;-77
2024/04/09 06:42:31;;;;;;;8.93;4.60;;;22.10;99.90;;;;;;5276724;27;19998;-76
2024/04/09 06:44:57;;;;;;;9.88;5.28;;;21.60;99.90;;;;;;5310174;27;20072;-76
2024/04/09 06:47:23;;;;;;;18.17;5.15;;;22.30;99.90;;;;;;5310586;26;20437;-76
2024/04/09 06:49:48;;;;;;;7.30;4.38;;;21.60;99.90;;;;;;5310735;27;20512;-75
2024/04/09 06:52:14;;;;;;;10.23;4.13;;;22.40;99.90;;;;;;5310631;27;19998;-77
2024/04/09 06:54:40;;;;;;;12.77;4.30;;;22.90;99.90;;;;;;5311514;26;19998;-77
2024/04/09 06:57:05;;;;;;;8.38;3.63;;;23.20;99.90;;;;;;5345306;26;20377;-76
2024/04/09 06:59:32;;;;;;;6.95;3.53;;;23.00;99.90;;;;;;5345271;26;20414;-77
2024/04/09 07:01:57;;;;;;;6.55;3.67;;;22.90;99.90;;;;;;5276336;27;19991;-75
2024/04/09 07:04:23;;;;;;;11.40;3.97;;;23.30;99.90;;;;;;5276492;27;20009;-76
2024/04/09 07:06:49;;;;;;;9.30;3.88;;;24.20;99.90;;;;;;5276426;27;20005;-76
2024/04/09 07:09:16;;;;;;;7.70;4.13;;;25.40;80.10;;;;;;5310957;27;20029;-77
2024/04/09 07:11:43;;;;;;;9.00;3.80;;;25.10;28.50;;;;;;5310142;27;20425;-77
2024/04/09 07:14:09;;;;;;;8.43;4.40;;;25.20;3.70;;;;;;5259949;27;19999;-76
2024/04/09 07:16:35;;;;;;;9.05;3.88;;;25.00;1.00;;;;;;5217590;27;20392;-76
2024/04/09 07:19:01;;;;;;;9.77;4.07;;;25.30;1.00;;;;;;5259202;27;20039;-76
2024/04/09 07:21:26;;;;;;;9.18;4.50;;;25.40;1.00;;;;;;5242529;27;20031;-76
2024/04/09 07:23:52;;;;;;;7.20;3.70;;;24.90;1.00;;;;;;5242497;27;20342;-76
2024/04/09 07:26:19;;;;;;;8.40;3.85;;;25.50;1.00;;;;;;5208610;27;20488;-77
2024/04/09 07:28:45;;;;;;;16.40;3.90;;;25.80;1.00;;;;;;5184705;27;20000;-76
2024/04/09 07:31:14;;;;;;;12.73;4.00;;;27.50;1.00;;;;;;5176150;27;20051;-76
2024/04/09 07:33:39;;;;;;;8.60;3.63;;;27.40;1.00;;;;;;5209155;27;20001;-77
2024/04/09 07:36:06;;;;;;;8.35;3.80;;;27.10;1.00;;;;;;5209307;27;20369;-77
2024/04/09 07:38:31;;;;;;;5.78;3.30;;;27.00;1.00;;;;;;5208602;27;20052;-77
2024/04/09 07:40:57;;;;;;;6.38;3.33;;;27.00;1.00;;;;;;5168636;27;20013;-78
2024/04/09 07:43:22;;;;;;;8.90;3.92;;;26.20;1.00;;;;;;5200818;27;20076;-77
2024/04/09 07:45:54;;;;;;;12.15;4.72;;;27.20;1.00;;;;;;5175578;27;20007;-77
2024/04/09 07:48:21;;;;;;;6.13;3.30;;;29.60;1.00;;;;;;5201554;27;20007;-77
2024/04/09 07:50:46;;;;;;;6.75;3.38;;;29.60;1.00;;;;;;5242068;27;20051;-78
2024/04/09 07:53:12;;;;;;;7.72;3.20;;;28.70;1.00;;;;;;5242249;27;20011;-78
2024/04/09 07:55:38;;;;;;;8.57;3.42;;;29.40;1.00;;;;;;5189750;27;20004;-78
2024/04/09 07:58:03;;;;;;;5.18;3.10;;;28.90;1.00;;;;;;5149731;27;20345;-78
2024/04/09 08:00:29;;;;;;;5.38;3.58;;;27.90;1.00;;;;;;5143723;27;20013;-75
2024/04/09 08:02:55;;;;;;;8.68;3.20;;;29.20;1.00;;;;;;5143608;27;20016;-74
2024/04/09 08:05:22;;;;;;;6.68;3.08;;;28.70;1.00;;;;;;5151018;27;20005;-76
2024/04/09 08:07:48;;;;;;;4.70;2.95;;;30.30;1.00;;;;;;5143369;27;20046;-75
2024/04/09 08:10:19;;;;;;;6.07;3.30;;;31.10;1.00;;;;;;5241367;27;19995;-75
2024/04/09 08:12:54;;;;;;;5.70;3.00;;;30.50;1.00;;;;;;5324017;26;20451;-75
2024/04/09 08:15:21;;;;;;;5.70;2.90;;;28.90;1.00;;;;;;5344168;26;20025;-83
2024/04/09 08:17:48;;;;;;;5.85;2.80;;;28.60;99.90;;;;;;5249513;26;20003;-84
2024/04/09 08:20:15;;;;;;;4.65;2.78;;;28.70;1.00;;;;;;5309343;27;20025;-81
2024/04/09 08:22:44;;;;;;;7.32;2.70;;;30.20;1.00;;;;;;5309298;27;19994;-81
2024/04/09 08:25:10;;;;;;;5.22;2.80;;;32.40;99.90;;;;;;5308685;27;20028;-81
2024/04/09 08:27:40;;;;;;;8.38;2.40;;;28.90;99.90;;;;;;5241319;27;19991;-80
2024/04/09 08:30:06;;;;;;;4.90;2.90;;;28.70;99.90;;;;;;5207500;27;19996;-79
2024/04/09 08:32:34;;;;;;;6.30;3.47;;;30.50;99.90;;;;;;5175113;27;20130;-80
2024/04/09 08:35:01;;;;;;;6.13;3.17;;;31.30;99.90;;;;;;5110755;28;20033;-81
2024/04/09 08:37:26;;;;;;;6.72;2.97;;;32.00;99.90;;;;;;5111221;28;19998;-81
2024/04/09 08:39:56;;;;;;;3.97;2.35;;;30.80;99.90;;;;;;5019215;28;20015;-81
2024/04/09 08:42:23;;;;;;;17.08;3.20;;;30.70;99.90;;;;;;4938820;28;20501;-81
2024/04/09 08:44:51;;;;;;;4.40;2.65;;;31.70;99.90;;;;;;4986570;28;20073;-79
2024/04/09 08:47:21;;;;;;;3.88;2.20;;;30.60;99.90;;;;;;5013191;28;20004;-78
2024/04/09 08:49:53;;;;;;;6.93;2.40;;;30.80;99.90;;;;;;5045018;28;20082;-82
2024/04/09 08:52:20;;;;;;;5.20;2.20;;;30.50;99.90;;;;;;5048163;28;20014;-79
2024/04/09 08:54:47;;;;;;;3.85;2.45;;;32.90;99.90;;;;;;5047915;28;20003;-79
2024/04/09 08:57:14;;;;;;;5.30;2.28;;;33.90;99.90;;;;;;5104699;28;20021;-79
2024/04/09 09:00:06;;;;;;;9.00;3.28;;;31.80;99.90;;;;;;5112249;27;20088;-77
2024/04/09 09:02:33;;;;;;;4.55;2.33;;;29.50;99.90;;;;;;5179168;27;20141;-78
2024/04/09 09:04:58;;;;;;;4.18;2.20;;;29.10;99.90;;;;;;5243638;27;19995;-80
2024/04/09 09:07:24;;;;;;;5.22;2.42;;;31.40;99.90;;;;;;5308799;27;19993;-77
2024/04/09 09:09:58;;;;;;;4.07;2.10;;;30.90;99.90;;;;;;5276388;27;19998;-78
2024/04/09 09:12:24;;;;;;;6.20;2.40;;;31.30;99.90;;;;;;5213732;27;19996;-78
2024/04/09 09:15:04;;;;;;;3.13;2.10;;;30.40;99.90;;;;;;5244192;27;20069;-78
2024/04/09 09:17:32;;;;;;;5.13;1.70;;;29.20;99.90;;;;;;5178791;27;20114;-78
2024/04/09 09:19:59;;;;;;;5.63;2.35;;;31.50;99.90;;;;;;5177707;27;19996;-74
2024/04/09 09:22:29;;;;;;;3.72;1.98;;;34.60;99.90;;;;;;5145509;27;20001;-76
2024/04/09 09:24:58;;;;;;;6.72;2.20;;;35.80;99.90;;;;;;5145322;27;20007;-77
2024/04/09 09:27:23;;;;;;;3.67;2.05;;;35.40;99.90;;;;;;5144822;27;20001;-77
2024/04/09 09:29:58;;;;;;;6.88;2.10;;;32.10;99.90;;;;;;5145348;27;20297;-77
2024/04/09 09:32:24;;;;;;;4.30;2.25;;;30.60;99.90;;;;;;5131430;27;19998;-76
2024/04/09 09:34:53;;;;;;;7.05;2.33;;;33.20;99.90;;;;;;5177532;27;20554;-77
2024/04/09 09:37:19;;;;;;;5.32;2.20;;;31.80;99.90;;;;;;5177500;27;19997;-78
2024/04/09 09:39:46;;;;;;;3.50;1.90;;;32.80;99.90;;;;;;5145747;27;19993;-80
2024/04/09 09:42:12;;;;;;;5.03;2.13;;;32.50;99.90;;;;;;5176764;27;20000;-79
2024/04/09 09:44:42;;;;;;;4.15;1.70;;;30.80;99.90;;;;;;5209161;27;19996;-78
2024/04/09 09:47:08;;;;;;;19.02;13.68;;;31.50;99.90;;;;;;5175520;27;20133;-78
2024/04/09 09:49:35;;;;;;;6.32;3.95;;;31.00;99.90;;;;;;5147619;27;20054;-78
2024/04/09 09:52:02;;;;;;;6.45;2.28;;;32.40;99.90;;;;;;5170538;27;20007;-79
2024/04/09 09:54:28;;;;;;;7.72;2.25;;;32.70;99.90;;;;;;5177454;27;20484;-79
2024/04/09 09:56:58;;;;;;;4.22;2.08;;;31.00;99.90;;;;;;5177370;27;20445;-79
2024/04/09 09:59:51;;;;;;;6.05;2.25;;;32.20;99.90;;;;;;5149012;27;20012;-79
2024/04/09 10:02:19;;;;;;;5.80;2.10;;;31.00;99.90;;;;;;5173406;27;19996;-79
2024/04/09 10:04:44;;;;;;;3.65;1.80;;;30.50;99.90;;;;;;5176080;27;20071;-79
2024/04/09 10:07:11;;;;;;;5.22;1.88;;;31.20;99.90;;;;;;5177037;27;20004;-79
2024/04/09 10:09:44;;;;;;;3.45;2.10;;;31.10;99.90;;;;;;5145067;27;20012;-79
2024/04/09 10:12:30;;;;;;;6.22;1.83;;;31.60;99.90;;;;;;5144702;27;20077;-80
2024/04/09 10:15:09;;;;;;;2.78;1.90;;;30.70;99.90;;;;;;5081070;28;20439;-79
2024/04/09 10:17:54;;;;;;;3.65;1.75;;;31.70;99.90;;;;;;5081434;28;20010;-79
2024/04/09 10:20:20;;;;;;;7.13;2.00;;;33.30;99.90;;;;;;5104385;27;20445;-79
2024/04/09 10:22:47;;;;;;;7.70;1.80;;;29.80;99.90;;;;;;5100871;28;19995;-79
2024/04/09 10:25:20;;;;;;;7.90;2.60;;;28.60;99.90;;;;;;5081417;28;20002;-78
2024/04/09 10:27:47;;;;;;;3.70;1.95;;;27.90;99.90;;;;;;5080699;28;20534;-79
2024/04/09 10:30:14;;;;;;;5.85;3.53;;;28.40;99.90;;;;;;5080906;28;19998;-81
2024/04/09 10:32:40;;;;;;;5.25;1.90;;;29.30;99.90;;;;;;5080851;28;20071;-80
2024/04/09 10:35:12;;;;;;;6.22;2.13;;;27.50;99.90;;;;;;5106059;28;20010;-80
2024/04/09 10:37:38;;;;;;;6.85;2.05;;;27.80;99.90;;;;;;5128908;27;20002;-79
2024/04/09 10:40:06;;;;;;;5.47;2.10;;;27.30;99.90;;;;;;5088136;28;19998;-78
2024/04/09 10:42:31;;;;;;;4.97;2.03;;;28.30;99.90;;;;;;5112449;28;20016;-80
2024/04/09 10:44:57;;;;;;;3.78;1.90;;;28.30;99.90;;;;;;5176593;27;19997;-79
2024/04/09 10:47:23;;;;;;;6.10;1.70;;;28.10;99.90;;;;;;5209594;27;19996;-78
2024/04/09 10:49:49;;;;;;;10.48;2.00;;;28.80;99.90;;;;;;5192095;27;19996;-80
2024/04/09 10:52:14;;;;;;;3.13;1.83;;;28.60;99.90;;;;;;5205131;27;20006;-80
2024/04/09 10:54:40;;;;;;;3.55;1.90;;;28.20;99.90;;;;;;5237709;27;20059;-79
2024/04/09 10:57:05;;;;;;;3.50;1.85;;;28.30;99.90;;;;;;5209502;27;19996;-79
2024/04/09 10:59:31;;;;;;;3.95;2.10;;;28.20;99.90;;;;;;5235945;27;19995;-80
2024/04/09 11:01:57;;;;;;;3.35;1.92;;;29.00;99.90;;;;;;5242589;27;19997;-79
2024/04/09 11:04:22;;;;;;;4.03;2.10;;;29.20;99.90;;;;;;5242945;27;19992;-80
2024/04/09 11:06:49;;;;;;;4.03;1.55;;;27.80;99.90;;;;;;5151841;27;20597;-80
2024/04/09 11:09:21;;;;;;;7.70;1.95;;;27.80;99.90;;;;;;5200551;27;20395;-80
2024/04/09 11:11:47;;;;;;;5.57;1.95;;;28.20;99.90;;;;;;5209558;27;20426;-80
2024/04/09 11:14:13;;;;;;;3.45;1.60;;;27.50;99.90;;;;;;5209265;27;19996;-79
2024/04/09 11:16:48;;;;;;;5.35;2.28;;;28.30;99.90;;;;;;5209084;27;20003;-79
2024/04/09 11:19:21;;;;;;;3.72;1.55;;;28.10;99.90;;;;;;5237035;27;20006;-78
2024/04/09 11:21:46;;;;;;;4.13;1.70;;;27.90;99.90;;;;;;5235624;27;20082;-80
2024/04/09 11:24:12;;;;;;;2.95;1.65;;;27.80;99.90;;;;;;5209223;27;20436;-80
2024/04/09 11:26:41;;;;;;;3.85;2.10;;;28.10;99.90;;;;;;5209582;27;20066;-79
2024/04/09 11:29:20;;;;;;;4.82;1.77;;;27.80;99.90;;;;;;5209629;27;19996;-80
2024/04/09 11:31:46;;;;;;;9.55;2.05;;;28.20;99.90;;;;;;5275096;27;20365;-79
2024/04/09 11:34:22;;;;;;;4.93;1.73;;;28.70;99.90;;;;;;5242101;27;19991;-79
2024/04/09 11:36:48;;;;;;;3.95;1.73;;;28.10;99.90;;;;;;5276326;27;20049;-79
2024/04/09 11:39:15;;;;;;;4.95;1.90;;;29.00;99.90;;;;;;5309954;27;20445;-80
2024/04/09 11:41:43;;;;;;;2.45;1.45;;;28.40;99.90;;;;;;5276093;27;19998;-80
2024/04/09 11:44:09;;;;;;;6.35;2.00;;;28.70;99.90;;;;;;5260933;27;20002;-80
2024/04/09 11:46:34;;;;;;;5.70;1.50;;;28.20;99.90;;;;;;5245318;27;19994;-80
2024/04/09 11:49:00;;;;;;;5.22;1.85;;;28.40;99.90;;;;;;5309952;27;20770;-79
2024/04/09 11:51:25;;;;;;;4.57;1.85;;;29.40;99.90;;;;;;5310697;27;19994;-81
2024/04/09 11:53:51;;;;;;;6.28;2.08;;;28.30;99.90;;;;;;5310573;27;20004;-80
2024/04/09 11:56:17;;;;;;;6.40;1.70;;;28.10;99.90;;;;;;5310016;27;20321;-80
2024/04/09 11:58:47;;;;;;;8.95;1.63;;;28.00;99.90;;;;;;5310013;27;20090;-79
2024/04/09 12:01:13;;;;;;;5.07;1.45;;;28.20;99.90;;;;;;5310198;27;20394;-79
2024/04/09 12:03:39;;;;;;;4.28;1.80;;;28.40;99.90;;;;;;5241919;27;20002;-80
2024/04/09 12:06:04;;;;;;;3.88;1.77;;;28.20;99.90;;;;;;5270222;27;19994;-80
2024/04/09 12:08:30;;;;;;;5.70;1.38;;;27.40;99.90;;;;;;5275220;27;20002;-81
2024/04/09 12:10:56;;;;;;;4.78;1.50;;;27.60;99.90;;;;;;5275397;27;19995;-80
2024/04/09 12:13:22;;;;;;;5.25;1.30;;;28.10;99.90;;;;;;5362441;26;20024;-79
2024/04/09 12:15:48;;;;;;;3.17;1.60;;;27.80;99.90;;;;;;5379058;26;20004;-79
2024/04/09 12:18:13;;;;;;;4.78;1.77;;;28.10;99.90;;;;;;5449856;26;20001;-79
2024/04/09 12:20:39;;;;;;;2.20;1.33;;;28.70;99.90;;;;;;5378392;26;19988;-80
2024/04/09 12:23:04;;;;;;;5.78;1.60;;;28.50;99.90;;;;;;5378554;26;19996;-79
2024/04/09 12:25:30;;;;;;;5.55;1.70;;;28.10;99.90;;;;;;5343260;26;20092;-79
2024/04/09 12:27:57;;;;;;;3.08;1.25;;;28.10;99.90;;;;;;5274748;27;20346;-80
2024/04/09 12:30:22;;;;;;;3.53;1.40;;;27.50;99.90;;;;;;5274542;27;20330;-80
2024/04/09 12:32:48;;;;;;;3.10;1.40;;;28.10;99.90;;;;;;5207832;27;19991;-80
2024/04/09 12:35:13;;;;;;;3.35;1.50;;;28.00;99.90;;;;;;5208082;27;20007;-81
2024/04/09 12:37:39;;;;;;;3.80;1.60;;;28.10;99.90;;;;;;5207705;27;20007;-80
2024/04/09 12:40:05;;;;;;;4.50;1.40;;;28.30;99.90;;;;;;5207831;27;20442;-81
2024/04/09 12:42:31;;;;;;;3.38;1.55;;;27.70;99.90;;;;;;5174745;27;20064;-81
2024/04/09 12:44:56;;;;;;;7.90;1.70;;;27.80;99.90;;;;;;5131372;27;20010;-81
2024/04/09 12:47:23;;;;;;;3.47;1.40;;;28.10;99.90;;;;;;5113988;28;20008;-80